sensor_id;sensor_type;location;lat;lon;timestamp;P1;durP1;ratioP1;P2;durP2;ratioP2
14052;SDS011;7101;51.600;7.310;2023-04-23T00:01:25;34.58;;;27.42;;
14052;SDS011;7101;51.600;7.310;2023-04-23T00:03:54;37.53;;;29.25;;
14052;SDS011;7101;51.600;7.310;2023-04-23T00:06:22;41.40;;;29.75;;
14052;SDS011;7101;51.600;7.310;2023-04-23T00:08:53;38.72;;;30.85;;
14052;SDS011;7101;51.600;7.310;2023-04-23T00:11:20;38.92;;;30.75;;
14052;SDS011;7101;51.600;7.310;2023-04-23T00:13:48;36.15;;;28.95;;
14052;SDS011;7101;51.600;7.310;2023-04-23T00:16:17;36.10;;;28.75;;
14052;SDS011;7101;51.600;7.310;2023-04-23T00:18:45;41.53;;;31.85;;
14052;SDS011;7101;51.600;7.310;2023-04-23T00:21:12;35.78;;;27.77;;
14052;SDS011;7101;51.600;7.310;2023-04-23T00:23:39;38.78;;;30.95;;
14052;SDS011;7101;51.600;7.310;2023-04-23T00:26:07;40.65;;;30.73;;
14052;SDS011;7101;51.600;7.310;2023-04-23T00:28:34;39.38;;;30.90;;
14052;SDS011;7101;51.600;7.310;2023-04-23T00:31:02;38.30;;;30.27;;
14052;SDS011;7101;51.600;7.310;2023-04-23T00:33:31;40.63;;;31.02;;
14052;SDS011;7101;51.600;7.310;2023-04-23T00:35:58;39.85;;;30.63;;
14052;SDS011;7101;51.600;7.310;2023-04-23T00:38:26;40.58;;;31.13;;
14052;SDS011;7101;51.600;7.310;2023-04-23T00:40:54;40.80;;;32.28;;
14052;SDS011;7101;51.600;7.310;2023-04-23T00:43:28;42.45;;;31.75;;
14052;SDS011;7101;51.600;7.310;2023-04-23T00:45:56;43.75;;;33.33;;
14052;SDS011;7101;51.600;7.310;2023-04-23T00:48:23;43.45;;;32.45;;
14052;SDS011;7101;51.600;7.310;2023-04-23T00:50:56;40.63;;;32.22;;
14052;SDS011;7101;51.600;7.310;2023-04-23T00:53:25;41.80;;;33.00;;
14052;SDS011;7101;51.600;7.310;2023-04-23T00:55:52;43.55;;;32.78;;
14052;SDS011;7101;51.600;7.310;2023-04-23T00:58:19;40.28;;;31.65;;
14052;SDS011;7101;51.600;7.310;2023-04-23T01:00:48;43.67;;;34.13;;
14052;SDS011;7101;51.600;7.310;2023-04-23T01:03:16;41.25;;;31.95;;
14052;SDS011;7101;51.600;7.310;2023-04-23T01:05:45;44.42;;;33.33;;
14052;SDS011;7101;51.600;7.310;2023-04-23T01:08:15;44.42;;;33.35;;
14052;SDS011;7101;51.600;7.310;2023-04-23T01:10:43;42.70;;;32.85;;
14052;SDS011;7101;51.600;7.310;2023-04-23T01:13:11;42.75;;;32.67;;
14052;SDS011;7101;51.600;7.310;2023-04-23T01:15:41;44.22;;;33.63;;
14052;SDS011;7101;51.600;7.310;2023-04-23T01:18:10;44.90;;;33.72;;
14052;SDS011;7101;51.600;7.310;2023-04-23T01:20:37;44.47;;;34.17;;
14052;SDS011;7101;51.600;7.310;2023-04-23T01:23:06;44.10;;;33.75;;
14052;SDS011;7101;51.600;7.310;2023-04-23T01:25:34;45.30;;;34.55;;
14052;SDS011;7101;51.600;7.310;2023-04-23T01:28:02;48.67;;;37.80;;
14052;SDS011;7101;51.600;7.310;2023-04-23T01:30:30;51.85;;;37.85;;
14052;SDS011;7101;51.600;7.310;2023-04-23T01:32:58;52.97;;;36.55;;
14052;SDS011;7101;51.600;7.310;2023-04-23T01:35:26;50.25;;;36.65;;
14052;SDS011;7101;51.600;7.310;2023-04-23T01:37:56;49.47;;;37.47;;
14052;SDS011;7101;51.600;7.310;2023-04-23T01:40:28;49.05;;;37.17;;
14052;SDS011;7101;51.600;7.310;2023-04-23T01:42:55;50.10;;;37.75;;
14052;SDS011;7101;51.600;7.310;2023-04-23T01:45:22;49.65;;;36.83;;
14052;SDS011;7101;51.600;7.310;2023-04-23T01:47:50;48.00;;;37.10;;
14052;SDS011;7101;51.600;7.310;2023-04-23T01:50:17;53.28;;;37.17;;
14052;SDS011;7101;51.600;7.310;2023-04-23T01:52:45;55.55;;;36.97;;
14052;SDS011;7101;51.600;7.310;2023-04-23T01:57:46;52.78;;;37.80;;
14052;SDS011;7101;51.600;7.310;2023-04-23T02:00:13;52.70;;;37.45;;
14052;SDS011;7101;51.600;7.310;2023-04-23T02:02:42;51.25;;;37.92;;
14052;SDS011;7101;51.600;7.310;2023-04-23T02:05:11;54.05;;;38.15;;
14052;SDS011;7101;51.600;7.310;2023-04-23T02:07:40;48.35;;;36.65;;
14052;SDS011;7101;51.600;7.310;2023-04-23T02:10:08;49.47;;;35.25;;
14052;SDS011;7101;51.600;7.310;2023-04-23T02:12:37;49.75;;;36.72;;
14052;SDS011;7101;51.600;7.310;2023-04-23T02:15:06;46.95;;;35.15;;
14052;SDS011;7101;51.600;7.310;2023-04-23T02:17:35;52.33;;;36.80;;
14052;SDS011;7101;51.600;7.310;2023-04-23T02:20:04;49.92;;;35.10;;
14052;SDS011;7101;51.600;7.310;2023-04-23T02:22:34;51.40;;;36.17;;
14052;SDS011;7101;51.600;7.310;2023-04-23T02:25:02;48.25;;;35.85;;
14052;SDS011;7101;51.600;7.310;2023-04-23T02:27:29;51.65;;;37.20;;
14052;SDS011;7101;51.600;7.310;2023-04-23T02:29:57;52.60;;;36.65;;
14052;SDS011;7101;51.600;7.310;2023-04-23T02:32:25;49.13;;;35.40;;
14052;SDS011;7101;51.600;7.310;2023-04-23T02:34:52;50.92;;;36.08;;
14052;SDS011;7101;51.600;7.310;2023-04-23T02:37:20;47.72;;;35.40;;
14052;SDS011;7101;51.600;7.310;2023-04-23T02:39:47;50.67;;;35.75;;
14052;SDS011;7101;51.600;7.310;2023-04-23T02:42:15;46.90;;;35.25;;
14052;SDS011;7101;51.600;7.310;2023-04-23T02:44:42;52.47;;;36.00;;
14052;SDS011;7101;51.600;7.310;2023-04-23T02:47:09;50.40;;;35.63;;
14052;SDS011;7101;51.600;7.310;2023-04-23T02:49:37;49.70;;;35.90;;
14052;SDS011;7101;51.600;7.310;2023-04-23T02:52:05;50.30;;;36.78;;
14052;SDS011;7101;51.600;7.310;2023-04-23T02:54:32;47.38;;;33.95;;
14052;SDS011;7101;51.600;7.310;2023-04-23T02:57:02;50.30;;;35.72;;
14052;SDS011;7101;51.600;7.310;2023-04-23T02:59:30;50.78;;;35.67;;
14052;SDS011;7101;51.600;7.310;2023-04-23T03:01:58;49.30;;;35.25;;
14052;SDS011;7101;51.600;7.310;2023-04-23T03:04:25;49.92;;;35.17;;
14052;SDS011;7101;51.600;7.310;2023-04-23T03:06:53;49.67;;;34.85;;
14052;SDS011;7101;51.600;7.310;2023-04-23T03:09:21;49.97;;;35.05;;
14052;SDS011;7101;51.600;7.310;2023-04-23T03:11:48;50.97;;;35.60;;
14052;SDS011;7101;51.600;7.310;2023-04-23T03:14:16;47.83;;;34.33;;
14052;SDS011;7101;51.600;7.310;2023-04-23T03:16:43;48.38;;;33.92;;
14052;SDS011;7101;51.600;7.310;2023-04-23T03:19:12;48.70;;;34.55;;
14052;SDS011;7101;51.600;7.310;2023-04-23T03:21:40;48.42;;;33.88;;
14052;SDS011;7101;51.600;7.310;2023-04-23T03:24:11;47.90;;;33.28;;
14052;SDS011;7101;51.600;7.310;2023-04-23T03:26:38;46.20;;;33.97;;
14052;SDS011;7101;51.600;7.310;2023-04-23T03:29:05;47.13;;;33.22;;
14052;SDS011;7101;51.600;7.310;2023-04-23T03:31:35;47.13;;;32.97;;
14052;SDS011;7101;51.600;7.310;2023-04-23T03:34:02;45.40;;;32.60;;
14052;SDS011;7101;51.600;7.310;2023-04-23T03:36:30;44.97;;;31.42;;
14052;SDS011;7101;51.600;7.310;2023-04-23T03:38:57;46.83;;;33.17;;
14052;SDS011;7101;51.600;7.310;2023-04-23T03:41:26;45.97;;;32.05;;
14052;SDS011;7101;51.600;7.310;2023-04-23T03:43:54;42.92;;;30.63;;
14052;SDS011;7101;51.600;7.310;2023-04-23T03:46:23;45.10;;;31.67;;
14052;SDS011;7101;51.600;7.310;2023-04-23T03:48:50;41.45;;;31.70;;
14052;SDS011;7101;51.600;7.310;2023-04-23T03:51:17;48.00;;;33.25;;
14052;SDS011;7101;51.600;7.310;2023-04-23T03:53:44;42.63;;;31.95;;
14052;SDS011;7101;51.600;7.310;2023-04-23T03:56:12;41.47;;;30.85;;
14052;SDS011;7101;51.600;7.310;2023-04-23T03:58:40;41.10;;;30.13;;
14052;SDS011;7101;51.600;7.310;2023-04-23T04:01:06;38.67;;;28.90;;
14052;SDS011;7101;51.600;7.310;2023-04-23T04:03:33;38.15;;;28.95;;
14052;SDS011;7101;51.600;7.310;2023-04-23T04:06:00;38.58;;;28.25;;
14052;SDS011;7101;51.600;7.310;2023-04-23T04:08:28;39.83;;;29.13;;
14052;SDS011;7101;51.600;7.310;2023-04-23T04:10:54;38.92;;;28.38;;
14052;SDS011;7101;51.600;7.310;2023-04-23T04:13:23;42.10;;;29.10;;
14052;SDS011;7101;51.600;7.310;2023-04-23T04:15:51;37.03;;;28.38;;
14052;SDS011;7101;51.600;7.310;2023-04-23T04:18:24;43.42;;;29.98;;
14052;SDS011;7101;51.600;7.310;2023-04-23T04:20:51;38.80;;;28.98;;
14052;SDS011;7101;51.600;7.310;2023-04-23T04:23:24;41.42;;;30.13;;
14052;SDS011;7101;51.600;7.310;2023-04-23T04:25:51;41.20;;;29.10;;
14052;SDS011;7101;51.600;7.310;2023-04-23T04:28:27;41.05;;;29.60;;
14052;SDS011;7101;51.600;7.310;2023-04-23T04:30:59;39.83;;;29.27;;
14052;SDS011;7101;51.600;7.310;2023-04-23T04:33:26;40.60;;;30.85;;
14052;SDS011;7101;51.600;7.310;2023-04-23T04:35:57;38.33;;;29.45;;
14052;SDS011;7101;51.600;7.310;2023-04-23T04:38:25;40.97;;;28.80;;
14052;SDS011;7101;51.600;7.310;2023-04-23T04:40:53;36.53;;;27.90;;
14052;SDS011;7101;51.600;7.310;2023-04-23T04:43:28;34.92;;;26.98;;
14052;SDS011;7101;51.600;7.310;2023-04-23T04:45:58;38.20;;;28.48;;
14052;SDS011;7101;51.600;7.310;2023-04-23T04:48:26;38.28;;;27.85;;
14052;SDS011;7101;51.600;7.310;2023-04-23T04:50:54;40.42;;;29.85;;
14052;SDS011;7101;51.600;7.310;2023-04-23T04:53:21;36.72;;;27.23;;
14052;SDS011;7101;51.600;7.310;2023-04-23T04:55:50;36.90;;;28.83;;
14052;SDS011;7101;51.600;7.310;2023-04-23T04:58:23;37.42;;;27.73;;
14052;SDS011;7101;51.600;7.310;2023-04-23T05:00:51;34.13;;;26.25;;
14052;SDS011;7101;51.600;7.310;2023-04-23T05:03:24;44.15;;;28.42;;
14052;SDS011;7101;51.600;7.310;2023-04-23T05:05:51;37.72;;;26.80;;
14052;SDS011;7101;51.600;7.310;2023-04-23T05:08:33;33.78;;;26.88;;
14052;SDS011;7101;51.600;7.310;2023-04-23T05:11:01;35.40;;;26.10;;
14052;SDS011;7101;51.600;7.310;2023-04-23T05:13:28;34.65;;;25.83;;
14052;SDS011;7101;51.600;7.310;2023-04-23T05:15:58;28.70;;;23.13;;
14052;SDS011;7101;51.600;7.310;2023-04-23T05:18:29;30.70;;;23.10;;
14052;SDS011;7101;51.600;7.310;2023-04-23T05:20:56;28.55;;;23.45;;
14052;SDS011;7101;51.600;7.310;2023-04-23T05:23:25;32.28;;;25.00;;
14052;SDS011;7101;51.600;7.310;2023-04-23T05:25:53;30.02;;;23.88;;
14052;SDS011;7101;51.600;7.310;2023-04-23T05:28:23;27.00;;;22.23;;
14052;SDS011;7101;51.600;7.310;2023-04-23T05:31:00;27.92;;;22.75;;
14052;SDS011;7101;51.600;7.310;2023-04-23T05:33:29;27.15;;;22.83;;
14052;SDS011;7101;51.600;7.310;2023-04-23T05:35:59;23.98;;;20.92;;
14052;SDS011;7101;51.600;7.310;2023-04-23T05:38:27;23.83;;;20.38;;
14052;SDS011;7101;51.600;7.310;2023-04-23T05:40:54;22.95;;;20.23;;
14052;SDS011;7101;51.600;7.310;2023-04-23T05:43:21;21.08;;;18.77;;
14052;SDS011;7101;51.600;7.310;2023-04-23T05:45:55;21.40;;;18.52;;
14052;SDS011;7101;51.600;7.310;2023-04-23T05:48:22;21.13;;;16.75;;
14052;SDS011;7101;51.600;7.310;2023-04-23T05:50:50;19.17;;;17.17;;
14052;SDS011;7101;51.600;7.310;2023-04-23T05:53:16;18.20;;;16.30;;
14052;SDS011;7101;51.600;7.310;2023-04-23T05:55:44;18.73;;;15.45;;
14052;SDS011;7101;51.600;7.310;2023-04-23T05:58:11;15.85;;;14.25;;
14052;SDS011;7101;51.600;7.310;2023-04-23T06:00:40;16.00;;;14.27;;
14052;SDS011;7101;51.600;7.310;2023-04-23T06:03:07;14.80;;;13.30;;
14052;SDS011;7101;51.600;7.310;2023-04-23T06:05:34;14.02;;;12.70;;
14052;SDS011;7101;51.600;7.310;2023-04-23T06:08:03;14.18;;;12.77;;
14052;SDS011;7101;51.600;7.310;2023-04-23T06:10:31;12.82;;;11.52;;
14052;SDS011;7101;51.600;7.310;2023-04-23T06:13:00;12.93;;;10.95;;
14052;SDS011;7101;51.600;7.310;2023-04-23T06:15:27;10.85;;;9.75;;
14052;SDS011;7101;51.600;7.310;2023-04-23T06:17:55;12.15;;;9.93;;
14052;SDS011;7101;51.600;7.310;2023-04-23T06:20:22;10.70;;;9.07;;
14052;SDS011;7101;51.600;7.310;2023-04-23T06:22:50;13.23;;;9.52;;
14052;SDS011;7101;51.600;7.310;2023-04-23T06:25:20;9.55;;;8.52;;
14052;SDS011;7101;51.600;7.310;2023-04-23T06:27:49;10.68;;;8.80;;
14052;SDS011;7101;51.600;7.310;2023-04-23T06:30:16;10.32;;;8.88;;
14052;SDS011;7101;51.600;7.310;2023-04-23T06:32:45;9.55;;;8.75;;
14052;SDS011;7101;51.600;7.310;2023-04-23T06:35:12;10.90;;;9.90;;
14052;SDS011;7101;51.600;7.310;2023-04-23T06:37:38;10.35;;;9.38;;
14052;SDS011;7101;51.600;7.310;2023-04-23T06:40:07;10.68;;;9.57;;
14052;SDS011;7101;51.600;7.310;2023-04-23T06:42:36;10.05;;;9.05;;
14052;SDS011;7101;51.600;7.310;2023-04-23T06:45:04;9.35;;;8.45;;
14052;SDS011;7101;51.600;7.310;2023-04-23T06:47:31;10.38;;;8.30;;
14052;SDS011;7101;51.600;7.310;2023-04-23T06:49:58;9.75;;;8.00;;
14052;SDS011;7101;51.600;7.310;2023-04-23T06:52:26;10.93;;;7.85;;
14052;SDS011;7101;51.600;7.310;2023-04-23T06:54:53;9.60;;;7.45;;
14052;SDS011;7101;51.600;7.310;2023-04-23T06:57:19;7.57;;;6.82;;
14052;SDS011;7101;51.600;7.310;2023-04-23T06:59:49;7.78;;;6.68;;
14052;SDS011;7101;51.600;7.310;2023-04-23T07:02:17;7.32;;;6.60;;
14052;SDS011;7101;51.600;7.310;2023-04-23T07:04:46;7.95;;;7.07;;
14052;SDS011;7101;51.600;7.310;2023-04-23T07:07:13;8.82;;;7.70;;
14052;SDS011;7101;51.600;7.310;2023-04-23T07:09:40;7.97;;;7.18;;
14052;SDS011;7101;51.600;7.310;2023-04-23T07:12:07;9.35;;;7.30;;
14052;SDS011;7101;51.600;7.310;2023-04-23T07:14:36;9.02;;;7.75;;
14052;SDS011;7101;51.600;7.310;2023-04-23T07:17:08;8.35;;;7.55;;
14052;SDS011;7101;51.600;7.310;2023-04-23T07:19:36;8.70;;;7.35;;
14052;SDS011;7101;51.600;7.310;2023-04-23T07:22:06;7.72;;;7.00;;
14052;SDS011;7101;51.600;7.310;2023-04-23T07:24:40;9.25;;;7.10;;
14052;SDS011;7101;51.600;7.310;2023-04-23T07:27:06;8.32;;;7.07;;
14052;SDS011;7101;51.600;7.310;2023-04-23T07:29:40;8.70;;;7.32;;
14052;SDS011;7101;51.600;7.310;2023-04-23T07:32:11;7.85;;;6.90;;
14052;SDS011;7101;51.600;7.310;2023-04-23T07:34:40;7.57;;;6.78;;
14052;SDS011;7101;51.600;7.310;2023-04-23T07:37:09;7.13;;;6.43;;
14052;SDS011;7101;51.600;7.310;2023-04-23T07:39:42;10.77;;;6.22;;
14052;SDS011;7101;51.600;7.310;2023-04-23T07:42:17;8.50;;;6.20;;
14052;SDS011;7101;51.600;7.310;2023-04-23T07:44:43;6.78;;;5.63;;
14052;SDS011;7101;51.600;7.310;2023-04-23T07:47:13;6.50;;;5.20;;
14052;SDS011;7101;51.600;7.310;2023-04-23T07:49:40;9.43;;;6.00;;
14052;SDS011;7101;51.600;7.310;2023-04-23T07:52:09;6.88;;;5.13;;
14052;SDS011;7101;51.600;7.310;2023-04-23T07:54:42;5.88;;;4.90;;
14052;SDS011;7101;51.600;7.310;2023-04-23T07:57:12;7.90;;;4.75;;
14052;SDS011;7101;51.600;7.310;2023-04-23T07:59:43;5.43;;;4.45;;
14052;SDS011;7101;51.600;7.310;2023-04-23T08:02:12;5.72;;;4.20;;
14052;SDS011;7101;51.600;7.310;2023-04-23T08:04:39;5.88;;;4.10;;
14052;SDS011;7101;51.600;7.310;2023-04-23T08:07:06;51.08;;;11.13;;
14052;SDS011;7101;51.600;7.310;2023-04-23T08:09:33;8.15;;;4.85;;
14052;SDS011;7101;51.600;7.310;2023-04-23T08:12:00;4.53;;;3.50;;
14052;SDS011;7101;51.600;7.310;2023-04-23T08:14:27;5.13;;;3.55;;
14052;SDS011;7101;51.600;7.310;2023-04-23T08:16:56;5.05;;;3.45;;
14052;SDS011;7101;51.600;7.310;2023-04-23T08:19:24;6.43;;;3.60;;
14052;SDS011;7101;51.600;7.310;2023-04-23T08:21:57;5.15;;;3.30;;
14052;SDS011;7101;51.600;7.310;2023-04-23T08:24:24;6.22;;;3.38;;
14052;SDS011;7101;51.600;7.310;2023-04-23T08:26:51;6.13;;;3.17;;
14052;SDS011;7101;51.600;7.310;2023-04-23T08:29:18;4.80;;;3.33;;
14052;SDS011;7101;51.600;7.310;2023-04-23T08:31:46;5.13;;;3.10;;
14052;SDS011;7101;51.600;7.310;2023-04-23T08:34:13;6.07;;;3.67;;
14052;SDS011;7101;51.600;7.310;2023-04-23T08:36:41;4.43;;;3.30;;
14052;SDS011;7101;51.600;7.310;2023-04-23T08:39:10;5.25;;;2.92;;
14052;SDS011;7101;51.600;7.310;2023-04-23T08:41:37;3.95;;;3.15;;
14052;SDS011;7101;51.600;7.310;2023-04-23T08:44:09;4.75;;;3.10;;
14052;SDS011;7101;51.600;7.310;2023-04-23T08:46:39;5.70;;;3.17;;
14052;SDS011;7101;51.600;7.310;2023-04-23T08:49:09;20.08;;;4.78;;
14052;SDS011;7101;51.600;7.310;2023-04-23T08:51:39;4.60;;;3.20;;
14052;SDS011;7101;51.600;7.310;2023-04-23T08:54:18;5.93;;;3.08;;
14052;SDS011;7101;51.600;7.310;2023-04-23T08:56:47;4.53;;;3.05;;
14052;SDS011;7101;51.600;7.310;2023-04-23T08:59:16;4.85;;;3.05;;
14052;SDS011;7101;51.600;7.310;2023-04-23T09:01:45;4.47;;;2.80;;
14052;SDS011;7101;51.600;7.310;2023-04-23T09:04:12;9.13;;;3.15;;
14052;SDS011;7101;51.600;7.310;2023-04-23T09:06:42;4.22;;;2.72;;
14052;SDS011;7101;51.600;7.310;2023-04-23T09:09:10;4.75;;;2.30;;
14052;SDS011;7101;51.600;7.310;2023-04-23T09:11:40;4.85;;;2.55;;
14052;SDS011;7101;51.600;7.310;2023-04-23T09:14:07;5.85;;;2.30;;
14052;SDS011;7101;51.600;7.310;2023-04-23T09:16:34;5.65;;;2.50;;
14052;SDS011;7101;51.600;7.310;2023-04-23T09:19:01;4.75;;;2.58;;
14052;SDS011;7101;51.600;7.310;2023-04-23T09:21:28;5.93;;;2.45;;
14052;SDS011;7101;51.600;7.310;2023-04-23T09:23:56;3.75;;;2.03;;
14052;SDS011;7101;51.600;7.310;2023-04-23T09:26:23;5.18;;;2.22;;
14052;SDS011;7101;51.600;7.310;2023-04-23T09:28:51;6.28;;;2.28;;
14052;SDS011;7101;51.600;7.310;2023-04-23T09:31:24;4.25;;;2.10;;
14052;SDS011;7101;51.600;7.310;2023-04-23T09:33:50;4.68;;;2.30;;
14052;SDS011;7101;51.600;7.310;2023-04-23T09:36:19;3.95;;;1.92;;
14052;SDS011;7101;51.600;7.310;2023-04-23T09:38:47;9.82;;;2.13;;
14052;SDS011;7101;51.600;7.310;2023-04-23T09:41:22;3.42;;;2.08;;
14052;SDS011;7101;51.600;7.310;2023-04-23T09:43:54;5.28;;;2.03;;
14052;SDS011;7101;51.600;7.310;2023-04-23T09:46:33;5.47;;;2.25;;
14052;SDS011;7101;51.600;7.310;2023-04-23T09:49:01;3.65;;;2.47;;
14052;SDS011;7101;51.600;7.310;2023-04-23T09:51:34;6.60;;;2.70;;
14052;SDS011;7101;51.600;7.310;2023-04-23T09:54:02;3.38;;;2.10;;
14052;SDS011;7101;51.600;7.310;2023-04-23T09:56:30;5.57;;;2.38;;
14052;SDS011;7101;51.600;7.310;2023-04-23T09:58:57;5.25;;;2.40;;
14052;SDS011;7101;51.600;7.310;2023-04-23T10:01:28;4.78;;;2.20;;
14052;SDS011;7101;51.600;7.310;2023-04-23T10:03:55;4.75;;;1.90;;
14052;SDS011;7101;51.600;7.310;2023-04-23T10:06:28;5.88;;;2.60;;
14052;SDS011;7101;51.600;7.310;2023-04-23T10:08:56;4.95;;;1.88;;
14052;SDS011;7101;51.600;7.310;2023-04-23T10:11:23;4.53;;;2.00;;
14052;SDS011;7101;51.600;7.310;2023-04-23T10:13:53;5.00;;;1.98;;
14052;SDS011;7101;51.600;7.310;2023-04-23T10:16:21;3.83;;;1.90;;
14052;SDS011;7101;51.600;7.310;2023-04-23T10:18:49;2.85;;;1.70;;
14052;SDS011;7101;51.600;7.310;2023-04-23T10:21:18;2.97;;;1.90;;
14052;SDS011;7101;51.600;7.310;2023-04-23T10:23:46;3.97;;;2.13;;
14052;SDS011;7101;51.600;7.310;2023-04-23T10:26:15;4.72;;;2.55;;
14052;SDS011;7101;51.600;7.310;2023-04-23T10:28:44;8.18;;;2.28;;
14052;SDS011;7101;51.600;7.310;2023-04-23T10:31:14;5.47;;;1.90;;
14052;SDS011;7101;51.600;7.310;2023-04-23T10:33:44;4.03;;;1.83;;
14052;SDS011;7101;51.600;7.310;2023-04-23T10:36:14;5.03;;;2.10;;
14052;SDS011;7101;51.600;7.310;2023-04-23T10:38:42;4.75;;;2.13;;
14052;SDS011;7101;51.600;7.310;2023-04-23T10:41:12;3.67;;;1.85;;
14052;SDS011;7101;51.600;7.310;2023-04-23T10:43:42;2.75;;;1.90;;
14052;SDS011;7101;51.600;7.310;2023-04-23T10:49:04;4.70;;;1.58;;
14052;SDS011;7101;51.600;7.310;2023-04-23T10:51:38;4.65;;;2.00;;
14052;SDS011;7101;51.600;7.310;2023-04-23T10:54:06;3.28;;;2.03;;
14052;SDS011;7101;51.600;7.310;2023-04-23T10:56:36;3.83;;;1.75;;
14052;SDS011;7101;51.600;7.310;2023-04-23T10:59:04;4.32;;;1.80;;
14052;SDS011;7101;51.600;7.310;2023-04-23T11:01:33;6.05;;;1.92;;
14052;SDS011;7101;51.600;7.310;2023-04-23T11:06:49;3.95;;;1.63;;
14052;SDS011;7101;51.600;7.310;2023-04-23T11:09:28;3.53;;;1.60;;
14052;SDS011;7101;51.600;7.310;2023-04-23T11:11:56;4.05;;;1.67;;
14052;SDS011;7101;51.600;7.310;2023-04-23T11:14:33;3.15;;;1.50;;
14052;SDS011;7101;51.600;7.310;2023-04-23T11:17:11;1.90;;;1.42;;
14052;SDS011;7101;51.600;7.310;2023-04-23T11:19:40;3.97;;;1.80;;
14052;SDS011;7101;51.600;7.310;2023-04-23T11:22:11;3.30;;;1.70;;
14052;SDS011;7101;51.600;7.310;2023-04-23T11:24:41;3.33;;;1.63;;
14052;SDS011;7101;51.600;7.310;2023-04-23T11:27:11;2.40;;;1.58;;
14052;SDS011;7101;51.600;7.310;2023-04-23T11:29:40;1.88;;;1.40;;
14052;SDS011;7101;51.600;7.310;2023-04-23T11:32:09;5.75;;;1.90;;
14052;SDS011;7101;51.600;7.310;2023-04-23T11:34:39;2.90;;;1.50;;
14052;SDS011;7101;51.600;7.310;2023-04-23T11:37:08;2.15;;;1.50;;
14052;SDS011;7101;51.600;7.310;2023-04-23T11:39:36;2.35;;;1.58;;
14052;SDS011;7101;51.600;7.310;2023-04-23T11:42:03;3.13;;;1.85;;
14052;SDS011;7101;51.600;7.310;2023-04-23T11:44:30;2.83;;;1.50;;
14052;SDS011;7101;51.600;7.310;2023-04-23T11:46:58;2.03;;;1.42;;
14052;SDS011;7101;51.600;7.310;2023-04-23T11:49:33;3.33;;;1.55;;
14052;SDS011;7101;51.600;7.310;2023-04-23T11:52:02;2.85;;;1.50;;
14052;SDS011;7101;51.600;7.310;2023-04-23T11:54:29;2.58;;;1.50;;
14052;SDS011;7101;51.600;7.310;2023-04-23T11:56:56;2.78;;;1.58;;
14052;SDS011;7101;51.600;7.310;2023-04-23T11:59:24;2.88;;;1.50;;
14052;SDS011;7101;51.600;7.310;2023-04-23T12:01:52;3.67;;;1.65;;
14052;SDS011;7101;51.600;7.310;2023-04-23T12:04:22;2.63;;;1.48;;
14052;SDS011;7101;51.600;7.310;2023-04-23T12:06:53;2.20;;;1.40;;
14052;SDS011;7101;51.600;7.310;2023-04-23T12:09:21;2.97;;;1.00;;
14052;SDS011;7101;51.600;7.310;2023-04-23T12:11:50;2.80;;;1.40;;
14052;SDS011;7101;51.600;7.310;2023-04-23T12:14:17;1.58;;;1.10;;
14052;SDS011;7101;51.600;7.310;2023-04-23T12:16:48;2.90;;;1.20;;
14052;SDS011;7101;51.600;7.310;2023-04-23T12:19:16;3.20;;;1.10;;
14052;SDS011;7101;51.600;7.310;2023-04-23T12:21:48;4.50;;;1.40;;
14052;SDS011;7101;51.600;7.310;2023-04-23T12:24:19;3.10;;;1.23;;
14052;SDS011;7101;51.600;7.310;2023-04-23T12:26:51;2.13;;;1.10;;
14052;SDS011;7101;51.600;7.310;2023-04-23T12:29:20;1.50;;;0.93;;
14052;SDS011;7101;51.600;7.310;2023-04-23T12:31:48;3.67;;;1.20;;
14052;SDS011;7101;51.600;7.310;2023-04-23T12:34:16;1.50;;;1.13;;
14052;SDS011;7101;51.600;7.310;2023-04-23T12:36:45;1.80;;;1.00;;
14052;SDS011;7101;51.600;7.310;2023-04-23T12:39:20;2.33;;;1.02;;
14052;SDS011;7101;51.600;7.310;2023-04-23T12:41:53;1.98;;;1.20;;
14052;SDS011;7101;51.600;7.310;2023-04-23T12:44:22;1.90;;;1.10;;
14052;SDS011;7101;51.600;7.310;2023-04-23T12:46:55;2.38;;;1.08;;
14052;SDS011;7101;51.600;7.310;2023-04-23T12:49:24;2.75;;;1.30;;
14052;SDS011;7101;51.600;7.310;2023-04-23T12:51:52;2.42;;;1.33;;
14052;SDS011;7101;51.600;7.310;2023-04-23T12:54:27;2.05;;;1.35;;
14052;SDS011;7101;51.600;7.310;2023-04-23T12:57:05;4.70;;;1.60;;
14052;SDS011;7101;51.600;7.310;2023-04-23T12:59:35;2.92;;;1.30;;
14052;SDS011;7101;51.600;7.310;2023-04-23T13:02:02;3.72;;;1.55;;
14052;SDS011;7101;51.600;7.310;2023-04-23T13:04:32;1.75;;;1.23;;
14052;SDS011;7101;51.600;7.310;2023-04-23T13:07:00;1.90;;;1.10;;
14052;SDS011;7101;51.600;7.310;2023-04-23T13:09:32;3.53;;;1.38;;
14052;SDS011;7101;51.600;7.310;2023-04-23T13:11:59;2.75;;;1.27;;
14052;SDS011;7101;51.600;7.310;2023-04-23T13:14:26;2.33;;;1.25;;
14052;SDS011;7101;51.600;7.310;2023-04-23T13:16:57;4.00;;;1.63;;
14052;SDS011;7101;51.600;7.310;2023-04-23T13:19:24;2.60;;;1.30;;
14052;SDS011;7101;51.600;7.310;2023-04-23T13:21:52;3.35;;;1.35;;
14052;SDS011;7101;51.600;7.310;2023-04-23T13:24:19;3.00;;;1.45;;
14052;SDS011;7101;51.600;7.310;2023-04-23T13:26:48;3.85;;;1.35;;
14052;SDS011;7101;51.600;7.310;2023-04-23T13:29:15;2.40;;;1.02;;
14052;SDS011;7101;51.600;7.310;2023-04-23T13:31:43;5.40;;;1.13;;
14052;SDS011;7101;51.600;7.310;2023-04-23T13:34:10;4.10;;;1.70;;
14052;SDS011;7101;51.600;7.310;2023-04-23T13:36:38;2.78;;;1.35;;
14052;SDS011;7101;51.600;7.310;2023-04-23T13:39:06;4.55;;;1.23;;
14052;SDS011;7101;51.600;7.310;2023-04-23T13:41:34;3.50;;;1.10;;
14052;SDS011;7101;51.600;7.310;2023-04-23T13:44:02;2.85;;;1.33;;
14052;SDS011;7101;51.600;7.310;2023-04-23T13:46:29;2.53;;;1.10;;
14052;SDS011;7101;51.600;7.310;2023-04-23T13:48:55;2.70;;;1.13;;
14052;SDS011;7101;51.600;7.310;2023-04-23T13:51:23;3.35;;;1.20;;
14052;SDS011;7101;51.600;7.310;2023-04-23T13:53:52;2.13;;;0.98;;
14052;SDS011;7101;51.600;7.310;2023-04-23T13:56:22;2.60;;;1.00;;
14052;SDS011;7101;51.600;7.310;2023-04-23T13:58:49;1.75;;;1.05;;
14052;SDS011;7101;51.600;7.310;2023-04-23T14:01:18;1.75;;;1.10;;
14052;SDS011;7101;51.600;7.310;2023-04-23T14:03:46;2.15;;;1.10;;
14052;SDS011;7101;51.600;7.310;2023-04-23T14:06:14;2.55;;;1.02;;
14052;SDS011;7101;51.600;7.310;2023-04-23T14:08:41;2.15;;;0.93;;
14052;SDS011;7101;51.600;7.310;2023-04-23T14:11:08;2.97;;;1.10;;
14052;SDS011;7101;51.600;7.310;2023-04-23T14:13:39;3.15;;;1.10;;
14052;SDS011;7101;51.600;7.310;2023-04-23T14:16:06;3.95;;;1.70;;
14052;SDS011;7101;51.600;7.310;2023-04-23T14:18:34;3.63;;;1.05;;
14052;SDS011;7101;51.600;7.310;2023-04-23T14:21:01;3.05;;;1.25;;
14052;SDS011;7101;51.600;7.310;2023-04-23T14:23:44;3.00;;;1.10;;
14052;SDS011;7101;51.600;7.310;2023-04-23T14:26:20;1.90;;;1.20;;
14052;SDS011;7101;51.600;7.310;2023-04-23T14:29:06;3.83;;;1.35;;
14052;SDS011;7101;51.600;7.310;2023-04-23T14:31:35;1.17;;;0.90;;
14052;SDS011;7101;51.600;7.310;2023-04-23T14:34:04;2.50;;;1.27;;
14052;SDS011;7101;51.600;7.310;2023-04-23T14:36:32;3.45;;;1.88;;
14052;SDS011;7101;51.600;7.310;2023-04-23T14:39:00;4.32;;;1.30;;
14052;SDS011;7101;51.600;7.310;2023-04-23T14:41:30;3.45;;;0.95;;
14052;SDS011;7101;51.600;7.310;2023-04-23T14:43:58;2.30;;;1.00;;
14052;SDS011;7101;51.600;7.310;2023-04-23T14:46:25;4.22;;;1.00;;
14052;SDS011;7101;51.600;7.310;2023-04-23T14:48:59;4.45;;;1.40;;
14052;SDS011;7101;51.600;7.310;2023-04-23T14:51:30;2.13;;;1.15;;
14052;SDS011;7101;51.600;7.310;2023-04-23T14:53:58;2.85;;;1.15;;
14052;SDS011;7101;51.600;7.310;2023-04-23T14:56:26;3.33;;;1.00;;
14052;SDS011;7101;51.600;7.310;2023-04-23T14:58:53;3.00;;;1.10;;
14052;SDS011;7101;51.600;7.310;2023-04-23T15:01:25;4.20;;;1.10;;
14052;SDS011;7101;51.600;7.310;2023-04-23T15:03:53;2.08;;;0.90;;
14052;SDS011;7101;51.600;7.310;2023-04-23T15:06:20;3.80;;;1.02;;
14052;SDS011;7101;51.600;7.310;2023-04-23T15:08:48;3.30;;;1.33;;